sensor_id;sensor_type;location;lat;lon;timestamp;temperature;humidity
18794;DHT22;29610;49.022;12.114;2023-08-20T00:01:30;20.60;99.90
18794;DHT22;29610;49.022;12.114;2023-08-20T00:03:59;20.60;99.90
18794;DHT22;29610;49.022;12.114;2023-08-20T00:06:28;20.70;99.90
18794;DHT22;29610;49.022;12.114;2023-08-20T00:08:57;20.70;99.90
18794;DHT22;29610;49.022;12.114;2023-08-20T00:11:26;20.70;99.90
18794;DHT22;29610;49.022;12.114;2023-08-20T00:13:54;20.60;99.90
18794;DHT22;29610;49.022;12.114;2023-08-20T00:16:23;20.60;99.90
18794;DHT22;29610;49.022;12.114;2023-08-20T00:18:52;20.60;99.90
18794;DHT22;29610;49.022;12.114;2023-08-20T00:21:21;20.60;99.90
18794;DHT22;29610;49.022;12.114;2023-08-20T00:23:50;20.50;99.90
18794;DHT22;29610;49.022;12.114;2023-08-20T00:26:19;20.60;99.90
18794;DHT22;29610;49.022;12.114;2023-08-20T00:28:50;20.50;99.90
18794;DHT22;29610;49.022;12.114;2023-08-20T00:31:18;20.50;99.90
18794;DHT22;29610;49.022;12.114;2023-08-20T00:33:46;20.60;99.90
18794;DHT22;29610;49.022;12.114;2023-08-20T00:36:32;20.50;99.90
18794;DHT22;29610;49.022;12.114;2023-08-20T00:39:00;20.60;99.90
18794;DHT22;29610;49.022;12.114;2023-08-20T00:41:28;20.50;99.90
18794;DHT22;29610;49.022;12.114;2023-08-20T00:43:58;20.50;99.90
18794;DHT22;29610;49.022;12.114;2023-08-20T00:46:27;20.60;99.90
18794;DHT22;29610;49.022;12.114;2023-08-20T00:48:55;20.60;99.90
18794;DHT22;29610;49.022;12.114;2023-08-20T00:51:24;20.60;99.90
18794;DHT22;29610;49.022;12.114;2023-08-20T00:53:53;20.60;99.90
18794;DHT22;29610;49.022;12.114;2023-08-20T00:56:22;20.50;99.90
18794;DHT22;29610;49.022;12.114;2023-08-20T00:58:50;20.50;99.90
18794;DHT22;29610;49.022;12.114;2023-08-20T01:01:22;20.50;99.90
18794;DHT22;29610;49.022;12.114;2023-08-20T01:03:51;20.40;99.90
18794;DHT22;29610;49.022;12.114;2023-08-20T01:06:23;20.40;99.90
18794;DHT22;29610;49.022;12.114;2023-08-20T01:09:05;20.30;99.90
18794;DHT22;29610;49.022;12.114;2023-08-20T01:11:46;20.30;99.90
18794;DHT22;29610;49.022;12.114;2023-08-20T01:14:30;20.40;99.90
18794;DHT22;29610;49.022;12.114;2023-08-20T01:17:00;20.30;99.90
18794;DHT22;29610;49.022;12.114;2023-08-20T01:19:29;20.40;99.90
18794;DHT22;29610;49.022;12.114;2023-08-20T01:22:21;20.40;99.90
18794;DHT22;29610;49.022;12.114;2023-08-20T01:25:15;20.50;99.90
18794;DHT22;29610;49.022;12.114;2023-08-20T01:27:57;20.50;99.90
18794;DHT22;29610;49.022;12.114;2023-08-20T01:30:32;20.50;99.90
18794;DHT22;29610;49.022;12.114;2023-08-20T01:33:01;20.50;99.90
18794;DHT22;29610;49.022;12.114;2023-08-20T01:35:30;20.50;99.90
18794;DHT22;29610;49.022;12.114;2023-08-20T01:38:03;20.50;99.90
18794;DHT22;29610;49.022;12.114;2023-08-20T01:40:31;20.60;99.90
18794;DHT22;29610;49.022;12.114;2023-08-20T01:43:00;20.60;99.90
18794;DHT22;29610;49.022;12.114;2023-08-20T01:45:28;20.70;99.90
18794;DHT22;29610;49.022;12.114;2023-08-20T01:47:58;20.60;99.90
18794;DHT22;29610;49.022;12.114;2023-08-20T01:50:26;20.60;99.90
18794;DHT22;29610;49.022;12.114;2023-08-20T01:52:54;20.60;99.90
18794;DHT22;29610;49.022;12.114;2023-08-20T01:55:23;20.60;99.90
18794;DHT22;29610;49.022;12.114;2023-08-20T01:57:51;20.60;99.90
18794;DHT22;29610;49.022;12.114;2023-08-20T02:00:19;20.60;99.90
18794;DHT22;29610;49.022;12.114;2023-08-20T02:02:47;20.60;99.90
18794;DHT22;29610;49.022;12.114;2023-08-20T02:05:17;20.60;99.90
18794;DHT22;29610;49.022;12.114;2023-08-20T02:07:45;20.50;99.90
18794;DHT22;29610;49.022;12.114;2023-08-20T02:10:14;20.60;99.90
18794;DHT22;29610;49.022;12.114;2023-08-20T02:12:42;20.60;99.90
18794;DHT22;29610;49.022;12.114;2023-08-20T02:15:11;20.60;99.90
18794;DHT22;29610;49.022;12.114;2023-08-20T02:17:39;20.50;99.90
18794;DHT22;29610;49.022;12.114;2023-08-20T02:20:08;20.60;99.90
18794;DHT22;29610;49.022;12.114;2023-08-20T02:22:38;20.60;99.90
18794;DHT22;29610;49.022;12.114;2023-08-20T02:25:08;20.60;99.90
18794;DHT22;29610;49.022;12.114;2023-08-20T02:27:36;20.60;99.90
18794;DHT22;29610;49.022;12.114;2023-08-20T02:30:06;20.50;99.90
18794;DHT22;29610;49.022;12.114;2023-08-20T02:32:35;20.50;99.90
18794;DHT22;29610;49.022;12.114;2023-08-20T02:35:04;20.40;99.90
18794;DHT22;29610;49.022;12.114;2023-08-20T02:37:32;20.50;99.90
18794;DHT22;29610;49.022;12.114;2023-08-20T02:40:03;20.50;99.90
18794;DHT22;29610;49.022;12.114;2023-08-20T02:42:33;20.60;99.90
18794;DHT22;29610;49.022;12.114;2023-08-20T02:45:01;20.60;99.90
18794;DHT22;29610;49.022;12.114;2023-08-20T02:47:30;20.50;99.90
18794;DHT22;29610;49.022;12.114;2023-08-20T02:49:58;20.50;99.90
18794;DHT22;29610;49.022;12.114;2023-08-20T02:52:26;20.40;99.90
18794;DHT22;29610;49.022;12.114;2023-08-20T02:54:55;20.40;99.90
18794;DHT22;29610;49.022;12.114;2023-08-20T02:57:24;20.50;99.90
18794;DHT22;29610;49.022;12.114;2023-08-20T02:59:52;20.40;99.90
18794;DHT22;29610;49.022;12.114;2023-08-20T03:02:21;20.30;99.90
18794;DHT22;29610;49.022;12.114;2023-08-20T03:04:49;20.20;99.90
18794;DHT22;29610;49.022;12.114;2023-08-20T03:07:17;20.20;99.90
18794;DHT22;29610;49.022;12.114;2023-08-20T03:09:45;20.20;99.90
18794;DHT22;29610;49.022;12.114;2023-08-20T03:12:14;20.10;99.90
18794;DHT22;29610;49.022;12.114;2023-08-20T03:14:43;20.10;99.90
18794;DHT22;29610;49.022;12.114;2023-08-20T03:17:11;20.10;99.90
18794;DHT22;29610;49.022;12.114;2023-08-20T03:19:53;20.10;99.90
18794;DHT22;29610;49.022;12.114;2023-08-20T03:22:23;20.00;99.90
18794;DHT22;29610;49.022;12.114;2023-08-20T03:24:53;20.10;99.90
18794;DHT22;29610;49.022;12.114;2023-08-20T03:27:21;20.00;99.90
18794;DHT22;29610;49.022;12.114;2023-08-20T03:29:51;20.00;99.90
18794;DHT22;29610;49.022;12.114;2023-08-20T03:32:20;20.00;99.90
18794;DHT22;29610;49.022;12.114;2023-08-20T03:34:49;20.00;99.90
18794;DHT22;29610;49.022;12.114;2023-08-20T03:37:18;20.00;99.90
18794;DHT22;29610;49.022;12.114;2023-08-20T03:39:46;19.90;99.90
18794;DHT22;29610;49.022;12.114;2023-08-20T03:42:14;19.90;99.90
18794;DHT22;29610;49.022;12.114;2023-08-20T03:44:43;19.90;99.90
18794;DHT22;29610;49.022;12.114;2023-08-20T03:47:12;19.80;99.90
18794;DHT22;29610;49.022;12.114;2023-08-20T03:49:41;19.80;99.90
18794;DHT22;29610;49.022;12.114;2023-08-20T03:52:09;19.80;99.90
18794;DHT22;29610;49.022;12.114;2023-08-20T03:54:37;19.80;99.90
18794;DHT22;29610;49.022;12.114;2023-08-20T03:57:05;19.80;99.90
18794;DHT22;29610;49.022;12.114;2023-08-20T03:59:33;19.80;99.90
18794;DHT22;29610;49.022;12.114;2023-08-20T04:02:02;19.70;99.90
18794;DHT22;29610;49.022;12.114;2023-08-20T04:04:32;19.70;99.90
18794;DHT22;29610;49.022;12.114;2023-08-20T04:07:00;19.60;99.90
18794;DHT22;29610;49.022;12.114;2023-08-20T04:09:32;19.50;99.90
18794;DHT22;29610;49.022;12.114;2023-08-20T04:12:00;19.50;99.90
18794;DHT22;29610;49.022;12.114;2023-08-20T04:14:29;19.50;99.90
18794;DHT22;29610;49.022;12.114;2023-08-20T04:16:57;19.50;99.90
18794;DHT22;29610;49.022;12.114;2023-08-20T04:19:25;19.50;99.90
18794;DHT22;29610;49.022;12.114;2023-08-20T04:21:55;19.40;99.90
18794;DHT22;29610;49.022;12.114;2023-08-20T04:24:23;19.40;99.90
18794;DHT22;29610;49.022;12.114;2023-08-20T04:26:51;19.40;99.90
18794;DHT22;29610;49.022;12.114;2023-08-20T04:29:25;19.40;99.90
18794;DHT22;29610;49.022;12.114;2023-08-20T04:31:54;19.40;99.90
18794;DHT22;29610;49.022;12.114;2023-08-20T04:34:22;19.40;99.90
18794;DHT22;29610;49.022;12.114;2023-08-20T04:36:52;19.40;99.90
18794;DHT22;29610;49.022;12.114;2023-08-20T04:39:22;19.40;99.90
18794;DHT22;29610;49.022;12.114;2023-08-20T04:41:52;19.40;99.90
18794;DHT22;29610;49.022;12.114;2023-08-20T04:44:24;19.40;99.90
18794;DHT22;29610;49.022;12.114;2023-08-20T04:46:54;19.50;99.90
18794;DHT22;29610;49.022;12.114;2023-08-20T04:49:22;19.50;99.90
18794;DHT22;29610;49.022;12.114;2023-08-20T04:51:55;19.60;99.90
18794;DHT22;29610;49.022;12.114;2023-08-20T04:54:25;19.60;99.90
18794;DHT22;29610;49.022;12.114;2023-08-20T04:56:53;19.60;99.90
18794;DHT22;29610;49.022;12.114;2023-08-20T04:59:22;19.60;99.90
18794;DHT22;29610;49.022;12.114;2023-08-20T05:01:51;19.70;99.90
18794;DHT22;29610;49.022;12.114;2023-08-20T05:04:33;19.70;99.90
18794;DHT22;29610;49.022;12.114;2023-08-20T05:07:02;19.80;99.90
18794;DHT22;29610;49.022;12.114;2023-08-20T05:09:32;19.90;99.90
18794;DHT22;29610;49.022;12.114;2023-08-20T05:12:01;19.90;99.90
18794;DHT22;29610;49.022;12.114;2023-08-20T05:14:30;20.00;99.90
18794;DHT22;29610;49.022;12.114;2023-08-20T05:16:58;20.00;99.90
18794;DHT22;29610;49.022;12.114;2023-08-20T05:19:27;20.40;99.90
18794;DHT22;29610;49.022;12.114;2023-08-20T05:21:55;20.20;99.90
18794;DHT22;29610;49.022;12.114;2023-08-20T05:24:26;20.30;99.90
18794;DHT22;29610;49.022;12.114;2023-08-20T05:27:06;20.30;99.90
18794;DHT22;29610;49.022;12.114;2023-08-20T05:29:37;20.40;99.90
18794;DHT22;29610;49.022;12.114;2023-08-20T05:32:06;20.50;99.90
18794;DHT22;29610;49.022;12.114;2023-08-20T05:34:35;20.60;99.90
18794;DHT22;29610;49.022;12.114;2023-08-20T05:37:04;20.60;99.90
18794;DHT22;29610;49.022;12.114;2023-08-20T05:39:37;20.70;99.90
18794;DHT22;29610;49.022;12.114;2023-08-20T05:42:09;20.80;99.90
18794;DHT22;29610;49.022;12.114;2023-08-20T05:44:42;20.90;99.90
18794;DHT22;29610;49.022;12.114;2023-08-20T05:47:15;21.00;99.90
18794;DHT22;29610;49.022;12.114;2023-08-20T05:49:43;21.10;99.90
18794;DHT22;29610;49.022;12.114;2023-08-20T05:52:11;21.10;99.90
18794;DHT22;29610;49.022;12.114;2023-08-20T05:54:41;21.20;99.90
18794;DHT22;29610;49.022;12.114;2023-08-20T05:57:11;21.30;99.90
18794;DHT22;29610;49.022;12.114;2023-08-20T05:59:39;21.40;99.90
18794;DHT22;29610;49.022;12.114;2023-08-20T06:02:07;21.50;99.90
18794;DHT22;29610;49.022;12.114;2023-08-20T06:04:35;21.60;99.90
18794;DHT22;29610;49.022;12.114;2023-08-20T06:07:04;21.80;99.90
18794;DHT22;29610;49.022;12.114;2023-08-20T06:09:32;21.90;99.90
18794;DHT22;29610;49.022;12.114;2023-08-20T06:12:00;22.10;99.90
18794;DHT22;29610;49.022;12.114;2023-08-20T06:14:30;22.30;99.90
18794;DHT22;29610;49.022;12.114;2023-08-20T06:16:58;22.60;99.90
18794;DHT22;29610;49.022;12.114;2023-08-20T06:19:26;22.80;99.90
18794;DHT22;29610;49.022;12.114;2023-08-20T06:21:54;23.10;99.90
18794;DHT22;29610;49.022;12.114;2023-08-20T06:24:22;23.20;99.90
18794;DHT22;29610;49.022;12.114;2023-08-20T06:26:51;23.50;99.90
18794;DHT22;29610;49.022;12.114;2023-08-20T06:29:20;23.60;99.90
18794;DHT22;29610;49.022;12.114;2023-08-20T06:31:50;23.80;99.90
18794;DHT22;29610;49.022;12.114;2023-08-20T06:34:19;23.90;99.90
18794;DHT22;29610;49.022;12.114;2023-08-20T06:36:47;24.10;99.90
18794;DHT22;29610;49.022;12.114;2023-08-20T06:39:17;24.20;99.90
18794;DHT22;29610;49.022;12.114;2023-08-20T06:41:46;24.40;99.90
18794;DHT22;29610;49.022;12.114;2023-08-20T06:44:20;24.60;99.90
18794;DHT22;29610;49.022;12.114;2023-08-20T06:46:48;24.60;99.90
18794;DHT22;29610;49.022;12.114;2023-08-20T06:49:18;24.60;99.90
18794;DHT22;29610;49.022;12.114;2023-08-20T06:51:46;24.70;99.90
18794;DHT22;29610;49.022;12.114;2023-08-20T06:54:15;24.80;99.90
18794;DHT22;29610;49.022;12.114;2023-08-20T06:56:43;25.00;99.90
18794;DHT22;29610;49.022;12.114;2023-08-20T06:59:13;25.10;99.90
18794;DHT22;29610;49.022;12.114;2023-08-20T07:01:41;25.20;99.90
18794;DHT22;29610;49.022;12.114;2023-08-20T07:04:10;25.30;99.90
18794;DHT22;29610;49.022;12.114;2023-08-20T07:06:39;25.30;99.90
18794;DHT22;29610;49.022;12.114;2023-08-20T07:09:08;25.50;99.90
18794;DHT22;29610;49.022;12.114;2023-08-20T07:11:36;25.70;99.90
18794;DHT22;29610;49.022;12.114;2023-08-20T07:14:05;25.90;99.90
18794;DHT22;29610;49.022;12.114;2023-08-20T07:16:33;26.00;99.90
18794;DHT22;29610;49.022;12.114;2023-08-20T07:19:01;26.10;99.90
18794;DHT22;29610;49.022;12.114;2023-08-20T07:21:31;26.30;99.90
18794;DHT22;29610;49.022;12.114;2023-08-20T07:23:59;27.30;99.90
18794;DHT22;29610;49.022;12.114;2023-08-20T07:26:29;26.50;99.90
18794;DHT22;29610;49.022;12.114;2023-08-20T07:28:58;26.60;99.90
18794;DHT22;29610;49.022;12.114;2023-08-20T07:31:27;26.70;99.90
18794;DHT22;29610;49.022;12.114;2023-08-20T07:33:57;26.70;99.90
18794;DHT22;29610;49.022;12.114;2023-08-20T07:36:31;26.60;99.90
18794;DHT22;29610;49.022;12.114;2023-08-20T07:38:59;26.80;99.90
18794;DHT22;29610;49.022;12.114;2023-08-20T07:41:29;26.90;99.90
18794;DHT22;29610;49.022;12.114;2023-08-20T07:43:57;26.80;99.60
18794;DHT22;29610;49.022;12.114;2023-08-20T07:46:26;26.80;99.90
18794;DHT22;29610;49.022;12.114;2023-08-20T07:48:54;26.80;99.70
18794;DHT22;29610;49.022;12.114;2023-08-20T07:51:22;26.90;99.90
18794;DHT22;29610;49.022;12.114;2023-08-20T07:53:52;27.00;99.70
18794;DHT22;29610;49.022;12.114;2023-08-20T07:56:20;27.20;99.60
18794;DHT22;29610;49.022;12.114;2023-08-20T07:58:48;27.20;99.00
18794;DHT22;29610;49.022;12.114;2023-08-20T08:01:17;27.20;98.60
18794;DHT22;29610;49.022;12.114;2023-08-20T08:03:45;27.30;99.20
18794;DHT22;29610;49.022;12.114;2023-08-20T08:06:14;27.40;98.90
18794;DHT22;29610;49.022;12.114;2023-08-20T08:08:44;27.60;98.50
18794;DHT22;29610;49.022;12.114;2023-08-20T08:11:13;27.70;98.20
18794;DHT22;29610;49.022;12.114;2023-08-20T08:13:41;27.70;97.80
18794;DHT22;29610;49.022;12.114;2023-08-20T08:16:10;27.60;97.90
18794;DHT22;29610;49.022;12.114;2023-08-20T08:18:38;27.60;97.70
18794;DHT22;29610;49.022;12.114;2023-08-20T08:21:06;27.80;98.00
18794;DHT22;29610;49.022;12.114;2023-08-20T08:23:34;27.80;96.90
18794;DHT22;29610;49.022;12.114;2023-08-20T08:26:02;27.80;97.40
18794;DHT22;29610;49.022;12.114;2023-08-20T08:28:32;27.80;97.00
18794;DHT22;29610;49.022;12.114;2023-08-20T08:31:00;27.80;97.00
18794;DHT22;29610;49.022;12.114;2023-08-20T08:33:31;27.70;97.00
18794;DHT22;29610;49.022;12.114;2023-08-20T08:35:59;27.60;97.20
18794;DHT22;29610;49.022;12.114;2023-08-20T08:38:27;27.80;97.30
18794;DHT22;29610;49.022;12.114;2023-08-20T08:40:55;27.80;96.90
18794;DHT22;29610;49.022;12.114;2023-08-20T08:43:25;27.90;96.10
18794;DHT22;29610;49.022;12.114;2023-08-20T08:45:56;27.90;96.20
18794;DHT22;29610;49.022;12.114;2023-08-20T08:48:25;28.10;96.30
18794;DHT22;29610;49.022;12.114;2023-08-20T08:50:53;28.10;96.60
18794;DHT22;29610;49.022;12.114;2023-08-20T08:53:24;28.30;96.10
18794;DHT22;29610;49.022;12.114;2023-08-20T08:55:52;28.30;95.90
18794;DHT22;29610;49.022;12.114;2023-08-20T08:58:21;28.30;95.80
18794;DHT22;29610;49.022;12.114;2023-08-20T09:00:49;28.30;95.70
18794;DHT22;29610;49.022;12.114;2023-08-20T09:03:19;28.20;95.20
18794;DHT22;29610;49.022;12.114;2023-08-20T09:05:47;28.30;95.20
18794;DHT22;29610;49.022;12.114;2023-08-20T09:08:20;28.30;95.40
18794;DHT22;29610;49.022;12.114;2023-08-20T09:10:50;28.50;94.70
18794;DHT22;29610;49.022;12.114;2023-08-20T09:13:22;28.50;94.20
18794;DHT22;29610;49.022;12.114;2023-08-20T09:15:52;28.60;94.70
18794;DHT22;29610;49.022;12.114;2023-08-20T09:18:22;28.60;94.40
18794;DHT22;29610;49.022;12.114;2023-08-20T09:20:50;28.50;94.90
18794;DHT22;29610;49.022;12.114;2023-08-20T09:23:19;28.60;94.80
18794;DHT22;29610;49.022;12.114;2023-08-20T09:25:47;28.70;94.80
18794;DHT22;29610;49.022;12.114;2023-08-20T09:28:16;28.70;94.40
18794;DHT22;29610;49.022;12.114;2023-08-20T09:30:58;28.90;94.70
18794;DHT22;29610;49.022;12.114;2023-08-20T09:33:29;29.00;94.60
18794;DHT22;29610;49.022;12.114;2023-08-20T09:35:57;29.00;94.60
18794;DHT22;29610;49.022;12.114;2023-08-20T09:38:26;29.00;94.00
18794;DHT22;29610;49.022;12.114;2023-08-20T09:40:54;29.20;93.90
18794;DHT22;29610;49.022;12.114;2023-08-20T09:43:25;29.30;94.30
18794;DHT22;29610;49.022;12.114;2023-08-20T09:45:56;29.40;93.90
18794;DHT22;29610;49.022;12.114;2023-08-20T09:48:33;29.60;92.70
18794;DHT22;29610;49.022;12.114;2023-08-20T09:51:05;29.70;92.90
18794;DHT22;29610;49.022;12.114;2023-08-20T09:53:43;29.70;92.90
18794;DHT22;29610;49.022;12.114;2023-08-20T09:56:22;29.90;92.30
18794;DHT22;29610;49.022;12.114;2023-08-20T10:01:25;30.20;91.90
18794;DHT22;29610;49.022;12.114;2023-08-20T10:03:56;30.50;92.30
18794;DHT22;29610;49.022;12.114;2023-08-20T10:06:25;30.80;91.60
18794;DHT22;29610;49.022;12.114;2023-08-20T10:08:56;31.00;91.40
18794;DHT22;29610;49.022;12.114;2023-08-20T10:11:27;30.90;90.60
18794;DHT22;29610;49.022;12.114;2023-08-20T10:13:55;31.30;91.30
18794;DHT22;29610;49.022;12.114;2023-08-20T10:16:24;31.70;90.30
18794;DHT22;29610;49.022;12.114;2023-08-20T10:18:56;32.30;87.30
18794;DHT22;29610;49.022;12.114;2023-08-20T10:21:29;32.50;86.00
18794;DHT22;29610;49.022;12.114;2023-08-20T10:24:03;32.80;86.30
18794;DHT22;29610;49.022;12.114;2023-08-20T10:26:33;33.40;85.30
18794;DHT22;29610;49.022;12.114;2023-08-20T10:29:39;33.60;84.10
18794;DHT22;29610;49.022;12.114;2023-08-20T10:32:09;33.40;82.90
18794;DHT22;29610;49.022;12.114;2023-08-20T10:34:43;33.50;83.40
18794;DHT22;29610;49.022;12.114;2023-08-20T10:37:26;34.00;82.80
18794;DHT22;29610;49.022;12.114;2023-08-20T10:39:56;34.60;78.70
18794;DHT22;29610;49.022;12.114;2023-08-20T10:42:28;34.80;78.30
18794;DHT22;29610;49.022;12.114;2023-08-20T10:44:57;34.90;79.20
18794;DHT22;29610;49.022;12.114;2023-08-20T10:47:41;35.00;74.10
18794;DHT22;29610;49.022;12.114;2023-08-20T10:50:15;35.20;72.90
18794;DHT22;29610;49.022;12.114;2023-08-20T10:52:48;35.30;73.70
18794;DHT22;29610;49.022;12.114;2023-08-20T10:55:21;35.50;74.30
18794;DHT22;29610;49.022;12.114;2023-08-20T10:57:55;35.60;73.60
18794;DHT22;29610;49.022;12.114;2023-08-20T11:00:26;35.50;71.50
18794;DHT22;29610;49.022;12.114;2023-08-20T11:02:55;35.70;74.00
18794;DHT22;29610;49.022;12.114;2023-08-20T11:05:27;35.90;71.50
18794;DHT22;29610;49.022;12.114;2023-08-20T11:07:55;35.80;71.10
18794;DHT22;29610;49.022;12.114;2023-08-20T11:10:24;35.90;70.10
18794;DHT22;29610;49.022;12.114;2023-08-20T11:12:54;35.60;72.30
18794;DHT22;29610;49.022;12.114;2023-08-20T11:15:22;35.50;70.50
18794;DHT22;29610;49.022;12.114;2023-08-20T11:17:50;35.60;72.30
18794;DHT22;29610;49.022;12.114;2023-08-20T11:20:20;35.90;70.70
18794;DHT22;29610;49.022;12.114;2023-08-20T11:22:49;36.20;69.80
18794;DHT22;29610;49.022;12.114;2023-08-20T11:25:18;36.40;69.10
18794;DHT22;29610;49.022;12.114;2023-08-20T11:27:46;36.70;69.50
18794;DHT22;29610;49.022;12.114;2023-08-20T11:30:15;36.50;71.70
18794;DHT22;29610;49.022;12.114;2023-08-20T11:32:44;36.40;69.50
18794;DHT22;29610;49.022;12.114;2023-08-20T11:35:13;36.00;70.50
18794;DHT22;29610;49.022;12.114;2023-08-20T11:37:42;36.20;71.50
18794;DHT22;29610;49.022;12.114;2023-08-20T11:40:12;36.50;69.70
18794;DHT22;29610;49.022;12.114;2023-08-20T11:42:40;36.70;67.70
18794;DHT22;29610;49.022;12.114;2023-08-20T11:45:10;36.50;68.50
18794;DHT22;29610;49.022;12.114;2023-08-20T11:47:39;36.60;64.20
18794;DHT22;29610;49.022;12.114;2023-08-20T11:50:08;37.00;65.80
18794;DHT22;29610;49.022;12.114;2023-08-20T11:52:38;37.30;65.20
18794;DHT22;29610;49.022;12.114;2023-08-20T11:55:08;37.20;63.40
18794;DHT22;29610;49.022;12.114;2023-08-20T11:57:38;37.40;65.60
18794;DHT22;29610;49.022;12.114;2023-08-20T12:00:07;37.70;66.20
18794;DHT22;29610;49.022;12.114;2023-08-20T12:02:42;37.60;66.10
18794;DHT22;29610;49.022;12.114;2023-08-20T12:05:10;36.60;63.90
18794;DHT22;29610;49.022;12.114;2023-08-20T12:07:39;35.90;66.70
18794;DHT22;29610;49.022;12.114;2023-08-20T12:10:20;35.80;67.80
18794;DHT22;29610;49.022;12.114;2023-08-20T12:12:51;36.20;68.00
18794;DHT22;29610;49.022;12.114;2023-08-20T12:15:20;36.30;65.20
18794;DHT22;29610;49.022;12.114;2023-08-20T12:17:56;35.90;65.30
18794;DHT22;29610;49.022;12.114;2023-08-20T12:20:27;36.30;66.30
18794;DHT22;29610;49.022;12.114;2023-08-20T12:22:59;36.70;66.60
18794;DHT22;29610;49.022;12.114;2023-08-20T12:25:29;37.00;62.80
18794;DHT22;29610;49.022;12.114;2023-08-20T12:27:59;36.80;63.70
18794;DHT22;29610;49.022;12.114;2023-08-20T12:30:28;36.60;65.70
18794;DHT22;29610;49.022;12.114;2023-08-20T12:32:56;36.20;65.20
18794;DHT22;29610;49.022;12.114;2023-08-20T12:35:25;36.20;65.60
18794;DHT22;29610;49.022;12.114;2023-08-20T12:37:53;36.20;64.50
18794;DHT22;29610;49.022;12.114;2023-08-20T12:40:21;36.00;64.60
18794;DHT22;29610;49.022;12.114;2023-08-20T12:42:49;35.90;66.30
18794;DHT22;29610;49.022;12.114;2023-08-20T12:45:19;35.70;65.00
18794;DHT22;29610;49.022;12.114;2023-08-20T12:47:47;36.00;65.30
18794;DHT22;29610;49.022;12.114;2023-08-20T12:50:15;36.00;66.30
18794;DHT22;29610;49.022;12.114;2023-08-20T12:52:44;36.40;66.00
18794;DHT22;29610;49.022;12.114;2023-08-20T12:55:13;36.60;63.10
18794;DHT22;29610;49.022;12.114;2023-08-20T12:57:52;36.90;67.10
18794;DHT22;29610;49.022;12.114;2023-08-20T13:00:24;37.00;62.90
18794;DHT22;29610;49.022;12.114;2023-08-20T13:02:54;37.10;63.40
18794;DHT22;29610;49.022;12.114;2023-08-20T13:05:24;37.30;60.80
18794;DHT22;29610;49.022;12.114;2023-08-20T13:07:54;37.10;66.50
18794;DHT22;29610;49.022;12.114;2023-08-20T13:10:23;36.70;61.60
18794;DHT22;29610;49.022;12.114;2023-08-20T13:12:54;36.30;64.50
18794;DHT22;29610;49.022;12.114;2023-08-20T13:15:30;35.80;61.50
18794;DHT22;29610;49.022;12.114;2023-08-20T13:18:02;35.80;61.80
18794;DHT22;29610;49.022;12.114;2023-08-20T13:20:32;36.00;60.30
18794;DHT22;29610;49.022;12.114;2023-08-20T13:23:00;35.90;62.50
18794;DHT22;29610;49.022;12.114;2023-08-20T13:25:29;35.90;60.60
18794;DHT22;29610;49.022;12.114;2023-08-20T13:27:57;35.90;61.50
18794;DHT22;29610;49.022;12.114;2023-08-20T13:30:26;35.90;61.60
18794;DHT22;29610;49.022;12.114;2023-08-20T13:32:55;35.90;65.60
18794;DHT22;29610;49.022;12.114;2023-08-20T13:35:24;36.40;65.00
18794;DHT22;29610;49.022;12.114;2023-08-20T13:37:52;36.30;62.90
18794;DHT22;29610;49.022;12.114;2023-08-20T13:40:21;36.10;62.30
18794;DHT22;29610;49.022;12.114;2023-08-20T13:42:49;35.40;61.10
18794;DHT22;29610;49.022;12.114;2023-08-20T13:45:17;35.30;64.90
18794;DHT22;29610;49.022;12.114;2023-08-20T13:47:45;34.90;63.40
18794;DHT22;29610;49.022;12.114;2023-08-20T13:50:15;34.80;61.60
18794;DHT22;29610;49.022;12.114;2023-08-20T13:52:44;34.80;62.00
18794;DHT22;29610;49.022;12.114;2023-08-20T13:55:12;34.80;64.40
18794;DHT22;29610;49.022;12.114;2023-08-20T13:57:40;35.00;62.20
18794;DHT22;29610;49.022;12.114;2023-08-20T14:00:09;35.10;62.60
18794;DHT22;29610;49.022;12.114;2023-08-20T14:02:39;35.20;63.20
18794;DHT22;29610;49.022;12.114;2023-08-20T14:05:08;34.90;62.50
18794;DHT22;29610;49.022;12.114;2023-08-20T14:07:38;34.80;61.50
18794;DHT22;29610;49.022;12.114;2023-08-20T14:10:08;34.70;62.40
18794;DHT22;29610;49.022;12.114;2023-08-20T14:12:36;34.60;64.60
18794;DHT22;29610;49.022;12.114;2023-08-20T14:15:08;34.70;66.30
18794;DHT22;29610;49.022;12.114;2023-08-20T14:17:37;34.10;62.90
18794;DHT22;29610;49.022;12.114;2023-08-20T14:20:06;34.10;61.80
18794;DHT22;29610;49.022;12.114;2023-08-20T14:22:35;33.90;63.10
18794;DHT22;29610;49.022;12.114;2023-08-20T14:25:06;33.90;66.80
18794;DHT22;29610;49.022;12.114;2023-08-20T14:27:35;34.10;65.10
18794;DHT22;29610;49.022;12.114;2023-08-20T14:30:04;33.80;63.80
18794;DHT22;29610;49.022;12.114;2023-08-20T14:32:35;33.60;64.40
18794;DHT22;29610;49.022;12.114;2023-08-20T14:35:07;33.60;69.80
18794;DHT22;29610;49.022;12.114;2023-08-20T14:37:36;33.50;66.70
18794;DHT22;29610;49.022;12.114;2023-08-20T14:40:07;33.60;68.50
18794;DHT22;29610;49.022;12.114;2023-08-20T14:42:38;33.50;65.30
18794;DHT22;29610;49.022;12.114;2023-08-20T14:45:08;33.30;63.50
18794;DHT22;29610;49.022;12.114;2023-08-20T14:47:37;33.10;64.20
18794;DHT22;29610;49.022;12.114;2023-08-20T14:50:06;33.10;66.80
18794;DHT22;29610;49.022;12.114;2023-08-20T14:52:35;33.10;68.20
18794;DHT22;29610;49.022;12.114;2023-08-20T14:55:06;33.30;67.30
18794;DHT22;29610;49.022;12.114;2023-08-20T14:57:36;33.00;64.70
18794;DHT22;29610;49.022;12.114;2023-08-20T15:00:18;32.60;65.70
18794;DHT22;29610;49.022;12.114;2023-08-20T15:02:49;32.30;66.50
18794;DHT22;29610;49.022;12.114;2023-08-20T15:05:18;32.20;68.80
18794;DHT22;29610;49.022;12.114;2023-08-20T15:07:46;32.10;67.20
18794;DHT22;29610;49.022;12.114;2023-08-20T15:10:16;32.20;69.10
18794;DHT22;29610;49.022;12.114;2023-08-20T15:12:45;32.20;66.00
18794;DHT22;29610;49.022;12.114;2023-08-20T15:15:13;32.10;67.40
18794;DHT22;29610;49.022;12.114;2023-08-20T15:17:41;32.10;69.20
18794;DHT22;29610;49.022;12.114;2023-08-20T15:20:10;32.10;69.60
18794;DHT22;29610;49.022;12.114;2023-08-20T15:22:39;32.20;70.10
18794;DHT22;29610;49.022;12.114;2023-08-20T15:25:08;32.30;68.30
18794;DHT22;29610;49.022;12.114;2023-08-20T15:27:39;32.10;67.40
18794;DHT22;29610;49.022;12.114;2023-08-20T15:30:07;32.10;67.70
18794;DHT22;29610;49.022;12.114;2023-08-20T15:32:36;32.10;67.60
18794;DHT22;29610;49.022;12.114;2023-08-20T15:35:05;32.20;68.90